createdAt,value
2018-09-06T00:00:50.731Z,9.23
2018-09-06T00:03:18.934Z,10.37
2018-09-06T00:05:47.182Z,10.37
2018-09-06T00:08:15.390Z,13.60
2018-09-06T00:10:43.915Z,10.63
2018-09-06T00:13:12.182Z,14.00
2018-09-06T00:15:43.858Z,9.87
2018-09-06T00:18:12.085Z,12.23
2018-09-06T00:20:40.281Z,12.77
2018-09-06T00:23:08.582Z,12.80
2018-09-06T00:25:37.334Z,12.47
2018-09-06T00:28:05.637Z,10.80
2018-09-06T00:30:33.867Z,12.27
2018-09-06T00:33:02.153Z,10.90
2018-09-06T00:35:30.307Z,12.17
2018-09-06T00:37:58.540Z,10.50
2018-09-06T00:40:26.722Z,12.60
2018-09-06T00:42:55.086Z,15.87
2018-09-06T00:45:24.072Z,11.77
2018-09-06T00:47:52.335Z,13.53
2018-09-06T00:50:21.520Z,12.80
2018-09-06T00:52:50.815Z,11.90
2018-09-06T00:55:19.634Z,14.70
2018-09-06T00:57:48.941Z,11.17
2018-09-06T01:00:17.229Z,13.40
2018-09-06T01:02:45.598Z,12.53
2018-09-06T01:05:13.814Z,15.77
2018-09-06T01:07:41.984Z,12.70
2018-09-06T01:10:10.154Z,15.50
2018-09-06T01:12:38.293Z,15.17
2018-09-06T01:15:06.469Z,12.90
2018-09-06T01:17:34.693Z,13.93
2018-09-06T01:22:38.417Z,11.90
2018-09-06T01:25:06.625Z,13.43
2018-09-06T01:27:34.865Z,13.83
2018-09-06T01:30:03.101Z,11.07
2018-09-06T01:32:31.302Z,11.57
2018-09-06T01:34:59.503Z,11.13
2018-09-06T01:37:27.646Z,14.87
2018-09-06T01:39:55.822Z,13.60
2018-09-06T01:42:23.966Z,13.87
2018-09-06T01:44:52.165Z,12.63
2018-09-06T01:47:20.482Z,10.60
2018-09-06T01:49:48.654Z,11.80
2018-09-06T01:52:16.852Z,11.90
2018-09-06T01:54:45.026Z,15.27
2018-09-06T01:57:13.183Z,12.13
2018-09-06T01:59:41.581Z,16.10
2018-09-06T02:02:10.145Z,11.63
2018-09-06T02:04:38.598Z,12.90
2018-09-06T02:07:07.287Z,14.57
2018-09-06T02:09:35.598Z,13.63
2018-09-06T02:12:03.773Z,15.97
2018-09-06T02:14:31.973Z,15.30
2018-09-06T02:17:00.189Z,15.73
2018-09-06T02:19:28.891Z,12.90
2018-09-06T02:21:57.129Z,12.60
2018-09-06T02:24:25.348Z,14.73
2018-09-06T02:26:53.674Z,13.47
2018-09-06T02:29:22.031Z,14.93
2018-09-06T02:31:50.230Z,18.70
2018-09-06T02:34:18.437Z,14.97
2018-09-06T02:36:46.623Z,12.07
2018-09-06T02:39:16.553Z,11.20
2018-09-06T02:41:45.299Z,11.50
2018-09-06T02:44:13.499Z,13.27
2018-09-06T02:46:41.673Z,11.50
2018-09-06T02:49:10.098Z,19.80
2018-09-06T02:51:38.670Z,16.23
2018-09-06T02:54:06.916Z,11.87
2018-09-06T02:56:35.110Z,14.37
2018-09-06T02:59:03.317Z,11.90
2018-09-06T03:01:31.494Z,13.10
2018-09-06T03:04:01.625Z,12.07
2018-09-06T03:06:29.838Z,19.93
2018-09-06T03:08:58.055Z,18.53
2018-09-06T03:11:30.766Z,14.40
2018-09-06T03:13:59.214Z,16.83
2018-09-06T03:16:27.403Z,16.63
2018-09-06T03:18:55.982Z,13.83
2018-09-06T03:21:24.818Z,16.50
2018-09-06T03:23:53.003Z,13.97
2018-09-06T03:26:21.191Z,14.50
2018-09-06T03:28:50.461Z,17.07
2018-09-06T03:31:18.661Z,20.87
2018-09-06T03:33:47.035Z,17.50
2018-09-06T03:36:15.633Z,12.07
2018-09-06T03:38:44.182Z,13.97
2018-09-06T03:41:12.387Z,16.20
2018-09-06T03:43:40.583Z,14.50
2018-09-06T03:46:09.437Z,14.90
2018-09-06T03:48:37.742Z,14.10
2018-09-06T03:51:06.322Z,14.70
2018-09-06T03:53:35.006Z,17.13
2018-09-06T03:56:03.857Z,14.00
2018-09-06T03:58:32.006Z,13.20
2018-09-06T04:01:00.242Z,15.80
2018-09-06T04:03:28.466Z,18.60
2018-09-06T04:05:56.662Z,15.57
2018-09-06T04:08:24.945Z,14.23
2018-09-06T04:10:53.966Z,14.17
2018-09-06T04:13:23.641Z,13.17
2018-09-06T04:15:51.834Z,14.23
2018-09-06T04:18:20.108Z,12.90
2018-09-06T04:20:48.770Z,13.63
2018-09-06T04:23:17.025Z,14.63
2018-09-06T04:25:45.255Z,16.23
2018-09-06T04:28:13.542Z,13.30
2018-09-06T04:30:41.764Z,11.57
2018-09-06T04:33:09.963Z,11.30
2018-09-06T04:35:38.146Z,12.67
2018-09-06T04:38:06.457Z,14.17
2018-09-06T04:40:34.658Z,13.07
2018-09-06T04:43:02.898Z,12.87
2018-09-06T04:45:32.048Z,16.13
2018-09-06T04:48:00.230Z,14.80
2018-09-06T04:50:28.431Z,14.20
2018-09-06T04:52:56.742Z,13.40
2018-09-06T04:55:25.023Z,15.07
2018-09-06T04:57:53.234Z,14.90
2018-09-06T05:00:21.434Z,13.80
2018-09-06T05:02:49.767Z,15.97
2018-09-06T05:05:17.958Z,13.57
2018-09-06T05:07:47.150Z,14.63
2018-09-06T05:10:15.321Z,14.67
2018-09-06T05:12:43.560Z,13.17
2018-09-06T05:15:11.702Z,12.30
2018-09-06T05:17:39.881Z,16.47
2018-09-06T05:20:08.050Z,14.43
2018-09-06T05:22:36.442Z,12.70
2018-09-06T05:25:05.194Z,11.47
2018-09-06T05:27:33.398Z,15.17
2018-09-06T05:30:01.706Z,12.43
2018-09-06T05:32:29.903Z,12.70
2018-09-06T05:34:58.991Z,15.67
2018-09-06T05:37:27.125Z,13.03
2018-09-06T05:39:55.591Z,14.37
2018-09-06T05:42:23.758Z,12.80
2018-09-06T05:44:57.933Z,16.37
2018-09-06T05:47:26.186Z,14.53
2018-09-06T05:49:54.394Z,14.35
2018-09-06T05:52:22.550Z,12.58
2018-09-06T05:54:50.954Z,14.03
2018-09-06T05:57:19.422Z,12.60
2018-09-06T05:59:47.695Z,13.18
2018-09-06T06:02:15.805Z,12.75
2018-09-06T06:04:43.978Z,12.85
2018-09-06T06:07:12.613Z,15.85
2018-09-06T06:09:41.493Z,11.85
2018-09-06T06:12:10.230Z,13.13
2018-09-06T06:17:50.505Z,16.17
2018-09-06T06:20:18.824Z,16.67
2018-09-06T06:23:06.111Z,13.10
2018-09-06T06:25:34.395Z,13.60
2018-09-06T06:28:03.467Z,14.33
2018-09-06T06:30:31.774Z,14.13
2018-09-06T06:38:56.621Z,12.35
2018-09-06T06:41:25.607Z,17.15
2018-09-06T06:43:54.264Z,12.78
2018-09-06T06:46:22.464Z,15.18
2018-09-06T06:48:51.147Z,12.68
2018-09-06T06:51:19.353Z,12.37
2018-09-06T06:53:47.554Z,21.02
2018-09-06T07:02:07.146Z,14.78
2018-09-06T07:04:35.376Z,23.60
2018-09-06T07:07:03.622Z,13.95
2018-09-06T07:09:31.725Z,13.00
2018-09-06T07:11:59.921Z,11.60
2018-09-06T07:14:28.239Z,12.65
2018-09-06T07:16:56.514Z,13.48
2018-09-06T07:19:26.748Z,14.45
2018-09-06T07:21:54.917Z,15.00
2018-09-06T07:24:23.146Z,13.03
2018-09-06T07:26:51.376Z,14.05
2018-09-06T07:29:19.534Z,16.73
2018-09-06T07:31:48.531Z,14.73
2018-09-06T07:34:16.725Z,12.20
2018-09-06T07:36:44.923Z,14.43
2018-09-06T07:39:13.505Z,14.63
2018-09-06T07:41:41.654Z,14.53
2018-09-06T07:44:09.828Z,16.80
2018-09-06T07:46:38.961Z,16.55
2018-09-06T07:49:07.174Z,15.98
2018-09-06T07:51:35.359Z,15.40
2018-09-06T07:54:03.544Z,13.50
2018-09-06T07:56:31.745Z,13.83
2018-09-06T07:58:59.952Z,15.35
2018-09-06T08:01:28.165Z,13.70
2018-09-06T08:03:57.229Z,12.05
2018-09-06T08:06:25.805Z,14.13
2018-09-06T08:08:54.015Z,16.10
2018-09-06T08:11:22.286Z,15.23
2018-09-06T08:13:50.478Z,11.22
2018-09-06T08:16:18.762Z,15.75
2018-09-06T08:18:47.013Z,14.13
2018-09-06T08:21:15.129Z,13.00
2018-09-06T08:23:43.340Z,15.78
2018-09-06T08:34:52.184Z,14.43
2018-09-06T08:37:20.595Z,12.55
2018-09-06T08:39:48.790Z,13.60
2018-09-06T08:42:17.005Z,14.70
2018-09-06T08:44:45.201Z,13.85
2018-09-06T08:47:13.502Z,20.35
2018-09-06T08:49:41.650Z,16.32
2018-09-06T08:52:09.919Z,19.50
2018-09-06T08:54:38.025Z,17.10
2018-09-06T08:57:06.578Z,14.90
2018-09-06T08:59:34.772Z,18.00
2018-09-06T09:02:08.185Z,11.63
2018-09-06T09:04:36.434Z,13.15
2018-09-06T09:07:04.590Z,11.55
2018-09-06T09:09:32.834Z,20.15
2018-09-06T09:12:01.006Z,16.50
2018-09-06T09:14:29.385Z,17.15
2018-09-06T09:16:57.542Z,16.55
2018-09-06T09:19:25.837Z,16.42
2018-09-06T09:21:54.366Z,13.88
2018-09-06T09:24:22.495Z,18.65
2018-09-06T09:26:50.761Z,18.60
2018-09-06T09:29:18.980Z,23.40
2018-09-06T09:31:47.131Z,19.15
2018-09-06T09:34:15.342Z,20.92
2018-09-06T09:36:43.546Z,17.17
2018-09-06T09:39:11.756Z,23.38
2018-09-06T09:41:39.942Z,16.82
2018-09-06T09:44:08.161Z,23.05
2018-09-06T09:49:03.745Z,15.60
2018-09-06T09:51:31.898Z,16.57
2018-09-06T09:54:00.080Z,14.73
2018-09-06T09:56:28.248Z,16.45
2018-09-06T09:58:56.405Z,14.65
2018-09-06T10:01:28.825Z,19.75
2018-09-06T10:04:02.473Z,19.15
2018-09-06T10:06:36.076Z,16.42
2018-09-06T10:09:10.065Z,16.93
2018-09-06T10:11:38.314Z,17.65
2018-09-06T10:14:06.647Z,15.28
2018-09-06T10:16:34.873Z,20.10
2018-09-06T10:19:03.074Z,20.12
2018-09-06T10:21:31.267Z,14.38
2018-09-06T10:23:59.489Z,17.35
2018-09-06T10:26:28.038Z,16.02
2018-09-06T10:28:56.236Z,21.20
2018-09-06T10:31:24.438Z,18.50
2018-09-06T10:33:52.959Z,17.52
2018-09-06T10:36:21.157Z,16.37
2018-09-06T10:38:53.147Z,16.77
2018-09-06T10:41:21.369Z,16.97
2018-09-06T10:43:50.089Z,18.10
2018-09-06T10:46:18.498Z,15.58
2018-09-06T10:48:46.684Z,22.77
2018-09-06T10:51:14.857Z,23.32
2018-09-06T10:53:43.055Z,18.02
2018-09-06T10:56:14.328Z,21.93
2018-09-06T10:58:43.109Z,16.65
2018-09-06T11:01:16.808Z,22.02
2018-09-06T11:07:01.912Z,16.62
2018-09-06T11:09:30.239Z,11.08
2018-09-06T11:11:58.462Z,9.60
2018-09-06T11:14:26.656Z,13.10
2018-09-06T11:16:55.498Z,12.98
2018-09-06T11:19:23.691Z,10.40
2018-09-06T11:21:52.213Z,11.70
2018-09-06T11:24:20.108Z,7.50
2018-09-06T11:26:48.835Z,7.97
2018-09-06T11:29:17.158Z,11.08
2018-09-06T11:31:49.286Z,6.10
2018-09-06T11:34:17.486Z,7.95
2018-09-06T11:36:45.715Z,7.33
2018-09-06T11:39:13.878Z,7.78
2018-09-06T11:41:42.185Z,7.45
2018-09-06T11:44:10.345Z,6.03
2018-09-06T11:46:38.810Z,8.65
2018-09-06T11:49:07.013Z,7.17
2018-09-06T11:51:35.126Z,7.97
2018-09-06T11:54:03.343Z,7.05
2018-09-06T11:56:31.585Z,6.60
2018-09-06T11:58:59.792Z,6.70
2018-09-06T12:01:27.922Z,5.95
2018-09-06T12:03:56.150Z,6.22
2018-09-06T12:06:24.345Z,6.15
2018-09-06T12:08:53.342Z,6.30
2018-09-06T12:11:21.601Z,5.95
2018-09-06T12:13:49.846Z,6.03
2018-09-06T12:16:17.971Z,6.60
2018-09-06T12:18:46.189Z,6.62
2018-09-06T12:21:14.362Z,6.42
2018-09-06T12:23:42.550Z,6.70
2018-09-06T12:26:10.741Z,7.00
2018-09-06T12:28:39.366Z,6.95
2018-09-06T12:31:07.574Z,8.25
2018-09-06T12:33:35.847Z,6.97
2018-09-06T12:36:04.410Z,9.08
2018-09-06T12:38:32.681Z,7.50
2018-09-06T12:41:00.838Z,8.05
2018-09-06T12:43:29.044Z,6.97
2018-09-06T12:45:57.242Z,8.70
2018-09-06T12:48:25.442Z,8.40
2018-09-06T12:50:53.650Z,8.05
2018-09-06T12:53:21.810Z,8.05
2018-09-06T12:55:49.985Z,8.48
2018-09-06T12:58:18.146Z,9.08
2018-09-06T13:00:46.326Z,8.83
2018-09-06T13:03:14.517Z,8.48
2018-09-06T13:05:42.674Z,7.97
2018-09-06T13:08:11.996Z,10.15
2018-09-06T13:10:40.174Z,7.70
2018-09-06T13:13:08.393Z,7.85
2018-09-06T13:15:36.584Z,7.95
2018-09-06T13:18:06.258Z,8.63
2018-09-06T13:20:34.466Z,9.03
2018-09-06T13:23:02.683Z,8.98
2018-09-06T13:25:31.302Z,12.55
2018-09-06T13:27:59.460Z,10.48
2018-09-06T13:30:27.652Z,10.32
2018-09-06T13:32:55.966Z,9.78
2018-09-06T13:35:24.137Z,12.70
2018-09-06T13:37:52.341Z,11.05
2018-09-06T13:40:20.509Z,11.60
2018-09-06T13:42:48.731Z,10.93
2018-09-06T13:45:17.634Z,12.95
2018-09-06T13:47:45.855Z,13.32
2018-09-06T13:50:14.076Z,14.00
2018-09-06T13:52:42.294Z,14.20
2018-09-06T13:55:10.831Z,13.98
2018-09-06T13:57:39.372Z,11.05
2018-09-06T14:00:07.648Z,6.60
2018-09-06T14:02:35.975Z,11.80
2018-09-06T14:05:04.209Z,8.53
2018-09-06T14:07:32.385Z,7.22
2018-09-06T14:10:00.621Z,6.12
2018-09-06T14:12:28.826Z,11.83
2018-09-06T14:14:57.030Z,8.18
2018-09-06T14:17:25.234Z,10.90
2018-09-06T14:19:53.429Z,7.90
2018-09-06T14:22:21.654Z,11.50
2018-09-06T14:24:50.218Z,13.72
2018-09-06T14:27:19.422Z,9.48
2018-09-06T14:29:47.806Z,9.28
2018-09-06T14:32:16.408Z,13.75
2018-09-06T14:34:44.991Z,10.63
2018-09-06T14:37:15.138Z,10.95
2018-09-06T14:39:43.555Z,11.57
2018-09-06T14:42:11.765Z,13.28
2018-09-06T14:44:39.929Z,10.45
2018-09-06T14:47:08.577Z,12.37
2018-09-06T14:49:37.342Z,11.35
2018-09-06T14:52:05.938Z,19.90
2018-09-06T14:54:34.130Z,12.98
2018-09-06T14:57:02.277Z,16.27
2018-09-06T14:59:30.461Z,14.05
2018-09-06T15:01:58.695Z,17.07
2018-09-06T15:04:26.875Z,14.53
2018-09-06T15:06:55.074Z,13.70
2018-09-06T15:09:23.466Z,15.65
2018-09-06T15:11:51.683Z,14.20
2018-09-06T15:14:19.859Z,12.35
2018-09-06T15:16:48.074Z,13.70
2018-09-06T15:19:16.341Z,13.20
2018-09-06T15:21:44.551Z,14.38
2018-09-06T15:24:12.743Z,19.62
2018-09-06T15:26:40.915Z,16.62
2018-09-06T15:29:09.116Z,18.95
2018-09-06T15:31:37.298Z,18.45
2018-09-06T15:34:05.602Z,15.23
2018-09-06T15:45:13.437Z,17.23
2018-09-06T15:47:42.142Z,15.00
2018-09-06T15:50:10.361Z,18.20
2018-09-06T15:52:38.530Z,20.43
2018-09-06T15:55:06.750Z,18.48
2018-09-06T15:57:34.967Z,15.65
2018-09-06T16:00:03.126Z,17.60
2018-09-06T16:02:31.305Z,14.28
2018-09-06T16:04:59.530Z,19.55
2018-09-06T16:07:27.866Z,15.58
2018-09-06T16:09:56.162Z,18.23
2018-09-06T16:12:24.393Z,20.00
2018-09-06T16:14:54.961Z,19.67
2018-09-06T16:17:23.166Z,15.83
2018-09-06T16:19:51.466Z,18.35
2018-09-06T16:22:20.274Z,15.20
2018-09-06T16:24:48.460Z,17.35
2018-09-06T16:27:16.625Z,16.97
2018-09-06T16:29:46.427Z,15.98
2018-09-06T16:32:14.838Z,14.60
2018-09-06T16:43:28.122Z,15.43
2018-09-06T16:45:56.334Z,17.27
2018-09-06T16:48:24.613Z,14.75
2018-09-06T16:50:52.849Z,14.33
2018-09-06T16:53:21.129Z,15.05
2018-09-06T16:55:49.285Z,16.40
2018-09-06T16:58:17.491Z,17.20
2018-09-06T17:00:45.676Z,14.30
2018-09-06T17:03:13.838Z,17.27
2018-09-06T17:23:06.162Z,21.07
2018-09-06T17:25:34.362Z,14.58
2018-09-06T17:28:02.962Z,16.37
2018-09-06T17:30:31.088Z,17.32
2018-09-06T17:32:59.334Z,18.60
2018-09-06T17:35:27.510Z,19.87
2018-09-06T17:37:56.334Z,25.27
2018-09-06T17:40:24.498Z,18.57
2018-09-06T17:42:52.677Z,19.70
2018-09-06T17:45:21.473Z,13.70
2018-09-06T17:47:49.716Z,11.00
2018-09-06T17:50:17.876Z,11.57
2018-09-06T17:52:46.045Z,9.88
2018-09-06T17:55:14.246Z,12.95
2018-09-06T17:57:42.469Z,9.70
2018-09-06T18:00:10.690Z,9.93
2018-09-06T18:02:39.161Z,11.33
2018-09-06T18:05:07.376Z,9.50
2018-09-06T18:07:35.590Z,9.78
2018-09-06T18:10:03.782Z,9.60
2018-09-06T18:12:31.998Z,9.95
2018-09-06T18:15:00.225Z,11.20
2018-09-06T18:17:28.448Z,11.55
2018-09-06T18:20:03.361Z,11.18
2018-09-06T18:22:31.661Z,11.73
2018-09-06T18:24:59.861Z,9.80
2018-09-06T18:27:28.102Z,11.68
2018-09-06T18:29:56.308Z,13.40
2018-09-06T18:32:24.482Z,13.75
2018-09-06T18:34:53.170Z,16.80
2018-09-06T18:37:21.351Z,12.60
2018-09-06T18:39:49.559Z,12.75
2018-09-06T18:42:17.746Z,13.18
2018-09-06T18:44:47.603Z,14.23
2018-09-06T18:47:15.916Z,12.47
2018-09-06T18:49:44.162Z,16.55
2018-09-06T18:52:12.910Z,13.30
2018-09-06T18:54:41.085Z,14.10
2018-09-06T18:57:09.246Z,13.30
2018-09-06T18:59:37.933Z,14.95
2018-09-06T19:02:06.270Z,13.40
2018-09-06T19:04:34.353Z,16.07
2018-09-06T19:07:02.533Z,15.50
2018-09-06T19:09:32.250Z,15.80
2018-09-06T19:12:00.445Z,15.60
2018-09-06T19:14:29.346Z,14.90
2018-09-06T19:16:57.514Z,15.18
2018-09-06T19:19:26.131Z,15.20
2018-09-06T19:21:54.350Z,16.25
2018-09-06T19:24:22.526Z,18.50
2018-09-06T19:26:53.955Z,21.70
2018-09-06T19:29:22.078Z,17.43
2018-09-06T19:31:50.407Z,24.07
2018-09-06T19:34:18.499Z,22.48
2018-09-06T19:36:46.697Z,22.48
2018-09-06T19:59:28.830Z,22.87
2018-09-06T20:01:57.012Z,28.53
2018-09-06T20:04:25.134Z,22.80
2018-09-06T20:06:53.329Z,26.02
2018-09-06T20:09:21.494Z,29.60
2018-09-06T20:11:49.668Z,29.23
2018-09-06T20:14:17.806Z,31.73
2018-09-06T20:16:46.313Z,29.37
2018-09-06T20:19:14.804Z,33.03
2018-09-06T20:21:43.010Z,31.17
2018-09-06T20:24:11.449Z,32.73
2018-09-06T20:26:39.649Z,35.95
2018-09-06T20:29:07.858Z,33.50
2018-09-06T20:31:36.230Z,35.63
2018-09-06T20:34:04.898Z,31.93
2018-09-06T20:36:33.062Z,39.97
2018-09-06T20:39:01.266Z,33.80
2018-09-06T20:41:29.482Z,33.60
2018-09-06T20:43:57.708Z,35.07
2018-09-06T20:46:25.902Z,40.27
2018-09-06T20:48:54.113Z,36.63
2018-09-06T20:51:22.278Z,37.27
2018-09-06T20:53:50.529Z,37.43
2018-09-06T20:56:18.707Z,41.90
2018-09-06T21:27:41.342Z,45.20
2018-09-06T21:30:09.607Z,45.80
2018-09-06T21:32:37.769Z,42.53
2018-09-06T21:35:06.738Z,46.40
2018-09-06T21:37:35.398Z,42.65
2018-09-06T21:40:04.227Z,45.47
2018-09-06T21:42:32.393Z,40.05
2018-09-06T21:45:00.591Z,45.17
2018-09-06T21:47:28.829Z,45.73
2018-09-06T21:49:57.012Z,47.83
2018-09-06T21:52:25.254Z,49.63
2018-09-06T21:54:53.450Z,46.98
2018-09-06T21:57:21.671Z,44.38
2018-09-06T22:08:35.510Z,38.13
2018-09-06T22:11:03.722Z,38.28
2018-09-06T22:13:31.903Z,39.18
2018-09-06T22:16:00.128Z,37.35
2018-09-06T22:18:28.324Z,37.40
2018-09-06T22:20:56.542Z,45.23
2018-09-06T22:23:24.754Z,42.70
2018-09-06T22:25:53.106Z,41.83
2018-09-06T22:28:21.308Z,43.03
2018-09-06T22:30:49.477Z,47.77
2018-09-06T22:33:17.889Z,53.53
2018-09-06T22:35:46.093Z,54.20
2018-09-06T22:38:18.234Z,57.97
2018-09-06T22:40:46.712Z,58.50
2018-09-06T22:43:14.874Z,53.93
2018-09-06T22:45:43.061Z,56.73
2018-09-06T22:48:11.229Z,69.57
2018-09-06T22:50:40.525Z,70.73
2018-09-06T22:53:08.696Z,67.37
2018-09-06T22:55:36.934Z,75.13
2018-09-06T22:58:05.177Z,74.70
2018-09-06T23:00:33.572Z,76.50
2018-09-06T23:03:07.287Z,69.40
2018-09-06T23:05:36.105Z,74.40
2018-09-06T23:08:04.822Z,74.67
2018-09-06T23:10:32.979Z,69.43
2018-09-06T23:13:01.324Z,76.73
2018-09-06T23:15:29.763Z,76.97
2018-09-06T23:17:57.971Z,70.53
2018-09-06T23:20:26.141Z,70.90
2018-09-06T23:22:54.347Z,67.70
2018-09-06T23:25:22.537Z,63.67
2018-09-06T23:27:50.742Z,66.30
2018-09-06T23:30:18.914Z,61.13
2018-09-06T23:32:47.069Z,68.60
2018-09-06T23:35:15.221Z,75.40
2018-09-06T23:37:43.370Z,70.97
2018-09-06T23:40:11.538Z,69.33
2018-09-06T23:42:40.105Z,64.03
2018-09-06T23:45:08.331Z,59.73
2018-09-06T23:47:36.483Z,57.27
2018-09-06T23:50:05.326Z,61.10
2018-09-06T23:52:33.507Z,56.00
2018-09-06T23:55:01.701Z,59.60
2018-09-06T23:57:29.855Z,52.57
2018-09-06T23:59:58.078Z,56.53
